Time;durP1;ratioP1;P1;durP2;ratioP2;P2;SDS_P1;SDS_P2;PMS_P1;PMS_P2;Temp;Humidity;BMP_temperature;BMP_pressure;BME280_temperature;BME280_humidity;BME280_pressure;Samples;Min_cycle;Max_cycle;Signal;HPM_P1;HPM_P2
2022/06/14 00:03:05;;;;;;;;;6.33;5.67;;;;;20.72;38.07;101969.22;5061241;28;45584;-57
2022/06/14 00:05:30;;;;;;;;;9.33;6.67;;;;;20.66;38.91;101965.09;5063105;27;59301;-56
2022/06/14 00:07:56;;;;;;;;;6.00;5.67;;;;;20.55;38.83;101968.59;5059154;28;45359;-54
2022/06/14 00:10:22;;;;;;;;;7.00;7.00;;;;;20.51;38.57;101961.69;5057144;28;45352;-55
2022/06/14 00:12:47;;;;;;;;;7.67;6.00;;;;;20.48;38.98;101961.91;5063079;28;70140;-56
2022/06/14 00:15:12;;;;;;;;;6.00;6.00;;;;;20.48;39.07;101967.31;5061323;28;65098;-55
2022/06/14 00:17:38;;;;;;;;;6.67;6.00;;;;;20.44;38.83;101966.69;5057912;28;45284;-56
2022/06/14 00:20:04;;;;;;;;;6.00;6.00;;;;;20.39;39.20;101958.06;5058502;28;45813;-57
2022/06/14 00:22:29;;;;;;;;;9.67;7.00;;;;;20.35;39.05;101961.97;5062906;28;46708;-55
2022/06/14 00:24:55;;;;;;;;;4.33;4.33;;;;;20.30;39.19;101962.28;5062816;27;67127;-55
2022/06/14 00:27:21;;;;;;;;;6.33;5.00;;;;;20.25;39.34;101961.78;5060824;28;45725;-56
2022/06/14 00:29:46;;;;;;;;;6.33;6.00;;;;;20.22;39.21;101961.13;5059879;28;45809;-56
2022/06/14 00:32:11;;;;;;;;;6.00;5.00;;;;;20.17;39.17;101958.78;5066033;28;73451;-54
2022/06/14 00:34:37;;;;;;;;;5.67;4.67;;;;;20.11;39.63;101956.50;5062321;28;45682;-55
2022/06/14 00:37:03;;;;;;;;;7.33;5.33;;;;;20.08;39.67;101954.91;5062152;28;45498;-56
2022/06/14 00:39:29;;;;;;;;;6.00;6.00;;;;;20.07;39.68;101966.66;5063341;28;45588;-56
2022/06/14 00:41:55;;;;;;;;;7.00;6.33;;;;;20.06;40.04;101958.69;5050444;28;46305;-56
2022/06/14 00:44:28;;;;;;;;;6.00;6.00;;;;;20.03;39.39;101957.06;5063179;28;45582;-56
2022/06/14 00:47:07;;;;;;;;;7.33;6.33;;;;;19.97;39.67;101957.50;5067465;28;45424;-55
2022/06/14 00:49:44;;;;;;;;;6.33;5.67;;;;;19.91;40.00;101958.81;5060850;28;45697;-55
2022/06/14 00:52:25;;;;;;;;;8.67;6.33;;;;;19.88;40.06;101961.75;5080116;27;46660;-55
2022/06/14 00:54:55;;;;;;;;;7.00;6.00;;;;;19.85;40.27;101958.38;5063369;28;45761;-55
2022/06/14 00:57:27;;;;;;;;;4.67;4.33;;;;;19.82;40.09;101959.47;5062031;28;45622;-55
2022/06/14 01:00:09;;;;;;;;;5.33;5.33;;;;;19.67;40.36;101956.84;5066207;28;45749;-55
2022/06/14 01:02:41;;;;;;;;;6.00;6.00;;;;;19.62;40.52;101959.00;5060466;28;45599;-55
2022/06/14 01:05:14;;;;;;;;;6.00;6.00;;;;;19.57;40.53;101954.88;5062139;28;45666;-55
2022/06/14 01:07:48;;;;;;;;;5.33;4.33;;;;;19.48;40.47;101946.47;5066659;28;45616;-55
2022/06/14 01:10:41;;;;;;;;;5.33;5.00;;;;;19.42;40.79;101943.34;5048405;28;45307;-56
2022/06/14 01:13:07;;;;;;;;;6.00;6.00;;;;;19.35;40.65;101942.91;5057975;28;46214;-56
2022/06/14 01:15:34;;;;;;;;;2.67;1.33;;;;;19.29;41.24;101956.81;5059296;28;45247;-56
2022/06/14 01:18:05;;;;;;;;;6.67;6.33;;;;;19.20;41.18;101954.75;5062953;28;45441;-55
2022/06/14 01:20:31;;;;;;;;;6.00;6.00;;;;;19.16;41.52;101943.31;5060571;28;45609;-56
2022/06/14 01:22:57;;;;;;;;;5.00;5.00;;;;;19.11;41.25;101945.44;5065230;28;45492;-56
2022/06/14 01:25:24;;;;;;;;;5.00;5.00;;;;;19.09;41.53;101944.72;5063509;28;45583;-55
2022/06/14 01:27:51;;;;;;;;;5.00;4.33;;;;;19.08;41.61;101935.75;5062297;28;45468;-55
2022/06/14 01:30:24;;;;;;;;;6.00;5.00;;;;;19.08;41.46;101934.88;5061352;28;69992;-54
2022/06/14 01:33:03;;;;;;;;;7.67;6.00;;;;;19.05;41.60;101932.41;5064536;28;46181;-54
2022/06/14 01:35:32;;;;;;;;;5.00;5.00;;;;;19.02;41.81;101930.78;5062725;28;45645;-55
2022/06/14 01:37:59;;;;;;;;;4.33;4.33;;;;;19.04;41.79;101930.69;5064312;27;45659;-55
2022/06/14 01:40:46;;;;;;;;;5.00;4.00;;;;;19.06;41.44;101924.22;5061320;28;45810;-55
2022/06/14 01:43:30;;;;;;;;;4.00;4.00;;;;;19.06;41.28;101931.44;5061854;28;46228;-55
2022/06/14 01:45:58;;;;;;;;;4.00;4.00;;;;;19.01;41.65;101924.53;5063762;28;45544;-55
2022/06/14 01:48:42;;;;;;;;;4.00;4.00;;;;;18.97;41.74;101925.69;5062374;27;45915;-55
2022/06/14 01:54:46;;;;;;;;;4.00;4.00;;;;;18.89;41.58;101917.28;5062597;28;45574;-55
2022/06/14 01:57:21;;;;;;;;;4.33;4.00;;;;;18.82;41.84;101915.91;5062456;28;45525;-54
2022/06/14 02:00:06;;;;;;;;;4.00;4.00;;;;;18.79;42.11;101918.84;5061572;28;46126;-55
2022/06/14 02:02:47;;;;;;;;;3.00;3.00;;;;;18.76;42.07;101913.63;5064101;28;46756;-55
2022/06/14 02:05:34;;;;;;;;;5.00;5.00;;;;;18.77;42.25;101913.56;5065186;28;46361;-55
2022/06/14 02:08:10;;;;;;;;;6.00;4.00;;;;;18.72;41.88;101912.13;5064781;28;45472;-54
2022/06/14 02:10:58;;;;;;;;;5.67;5.00;;;;;18.68;42.36;101909.63;5078541;27;46923;-55
2022/06/14 02:13:48;;;;;;;;;5.67;5.00;;;;;18.69;42.24;101905.09;5060068;28;45392;-53
2022/06/14 02:16:30;;;;;;;;;4.00;4.00;;;;;18.71;42.17;101903.19;5056324;28;46339;-55
2022/06/14 02:19:24;;;;;;;;;6.00;5.33;;;;;18.71;42.42;101900.47;5057478;28;45505;-55
2022/06/14 02:21:55;;;;;;;;;6.00;5.00;;;;;18.71;42.18;101907.69;5044505;28;45491;-54
2022/06/14 02:24:26;;;;;;;;;6.67;5.67;;;;;18.68;42.27;101897.97;5073490;28;45318;-54
2022/06/14 02:27:00;;;;;;;;;4.67;4.67;;;;;18.66;42.45;101902.63;5059546;28;45987;-54
2022/06/14 02:29:32;;;;;;;;;6.67;5.00;;;;;18.64;42.22;101908.13;5062929;28;45726;-54
2022/06/14 02:32:14;;;;;;;;;4.67;4.67;;;;;18.64;42.60;101915.31;5056904;28;46845;-54
2022/06/14 02:34:44;;;;;;;;;4.33;4.33;;;;;18.59;42.36;101906.69;5055609;28;45484;-55
2022/06/14 02:37:36;;;;;;;;;5.33;4.00;;;;;18.56;42.95;101918.53;5079829;27;45747;-55
2022/06/14 02:40:06;;;;;;;;;5.00;5.00;;;;;18.55;42.61;101915.94;5062603;28;45659;-55
2022/06/14 02:42:36;;;;;;;;;7.67;5.33;;;;;18.53;42.87;101910.66;5057103;28;45288;-55
2022/06/14 02:45:07;;;;;;;;;6.67;6.00;;;;;18.56;42.77;101910.44;5055183;28;45458;-55
2022/06/14 02:47:39;;;;;;;;;5.67;5.67;;;;;18.57;42.67;101906.78;5068360;27;45405;-55
2022/06/14 02:50:19;;;;;;;;;6.67;5.33;;;;;18.52;42.84;101907.09;5075349;27;45417;-54
2022/06/14 02:52:54;;;;;;;;;5.67;5.67;;;;;18.46;43.18;101909.31;5057083;28;45438;-55
2022/06/14 02:55:25;;;;;;;;;8.67;6.67;;;;;18.41;42.98;101904.25;5069906;27;45455;-55
2022/06/14 02:58:06;;;;;;;;;7.33;7.00;;;;;18.38;42.91;101895.50;5061722;28;46422;-56
2022/06/14 03:00:36;;;;;;;;;6.00;5.00;;;;;18.38;43.04;101882.88;5059581;28;45515;-55
2022/06/14 03:03:11;;;;;;;;;8.00;7.33;;;;;18.38;43.23;101884.72;5068950;28;45386;-55
2022/06/14 03:06:01;;;;;;;;;6.00;6.00;;;;;18.35;43.54;101883.09;5080975;27;46034;-54
2022/06/14 03:08:30;;;;;;;;;6.67;5.33;;;;;18.33;43.37;101885.06;5039428;28;45722;-54
2022/06/14 03:11:03;;;;;;;;;7.33;7.00;;;;;18.31;43.04;101878.88;5042881;28;45481;-55
2022/06/14 03:13:34;;;;;;;;;9.33;7.67;;;;;18.30;43.13;101874.47;5059573;28;46824;-54
2022/06/14 03:16:42;;;;;;;;;4.67;4.67;;;;;18.33;43.45;101885.91;5052425;28;45497;-54
2022/06/14 03:19:19;;;;;;;;;5.67;5.67;;;;;18.37;42.89;101881.19;5045087;28;46213;-55
2022/06/14 03:21:56;;;;;;;;;5.00;5.00;;;;;18.34;43.36;101884.94;5061329;28;45505;-56
2022/06/14 03:24:43;;;;;;;;;6.00;6.00;;;;;18.34;43.07;101884.94;5061858;28;45571;-55
2022/06/14 03:27:26;;;;;;;;;7.33;6.00;;;;;18.35;43.57;101881.28;5060067;28;45532;-55
2022/06/14 03:30:05;;;;;;;;;6.67;6.00;;;;;18.37;43.35;101888.38;5060702;27;46403;-56
2022/06/14 03:32:56;;;;;;;;;4.67;4.67;;;;;18.39;43.50;101881.06;5037689;28;45522;-56
2022/06/14 03:35:29;;;;;;;;;7.67;6.00;;;;;18.41;43.31;101881.81;5047776;28;45394;-55
2022/06/14 03:37:56;;;;;;;;;5.00;5.00;;;;;18.41;43.24;101877.31;5043535;28;45497;-55
2022/06/14 03:40:23;;;;;;;;;7.00;5.00;;;;;18.43;43.55;101872.69;5040563;28;45556;-55
2022/06/14 03:42:49;;;;;;;;;6.00;5.33;;;;;18.44;43.42;101878.94;5043198;28;45224;-55
2022/06/14 03:45:20;;;;;;;;;3.67;3.67;;;;;18.43;43.19;101885.28;5041795;28;45690;-56
2022/06/14 03:47:45;;;;;;;;;4.00;4.00;;;;;18.41;43.40;101881.81;5042213;28;45399;-56
2022/06/14 03:50:18;;;;;;;;;5.67;5.00;;;;;18.40;43.29;101880.97;5039792;28;46255;-55
2022/06/14 03:53:04;;;;;;;;;3.00;3.00;;;;;18.39;43.29;101876.53;5043763;28;45384;-55
2022/06/14 03:55:38;;;;;;;;;4.67;4.00;;;;;18.39;43.61;101883.78;5043271;28;45480;-54
2022/06/14 03:58:12;;;;;;;;;4.67;4.67;;;;;18.35;43.49;101875.91;5041917;28;45403;-55
2022/06/14 04:00:54;;;;;;;;;5.67;5.00;;;;;18.33;43.68;101877.81;5041900;28;46385;-54
2022/06/14 04:03:41;;;;;;;;;5.00;5.00;;;;;18.30;43.54;101869.97;5053649;28;45757;-55
2022/06/14 04:06:28;;;;;;;;;3.67;3.67;;;;;18.28;43.88;101874.56;5049898;28;45339;-54
2022/06/14 04:09:25;;;;;;;;;4.00;4.00;;;;;18.26;43.43;101875.63;5064774;28;45462;-54
2022/06/14 04:12:15;;;;;;;;;5.67;4.00;;;;;18.22;43.97;101874.97;5051297;28;46198;-54
2022/06/14 04:15:05;;;;;;;;;4.00;4.00;;;;;18.21;43.79;101880.44;5058088;28;45493;-55
2022/06/14 04:17:38;;;;;;;;;4.00;4.00;;;;;18.20;43.91;101876.91;5058276;28;45259;-55
2022/06/14 04:20:13;;;;;;;;;4.00;4.00;;;;;18.17;44.08;101879.78;5062162;28;45508;-54
2022/06/14 04:22:41;;;;;;;;;6.00;4.67;;;;;18.14;44.02;101885.38;5074559;27;45560;-54
2022/06/14 04:25:13;;;;;;;;;4.00;4.00;;;;;18.10;44.01;101882.00;5062286;28;45386;-55
2022/06/14 04:27:46;;;;;;;;;5.00;5.00;;;;;18.04;44.19;101884.25;5059785;28;45406;-53
2022/06/14 04:30:17;;;;;;;;;6.00;6.00;;;;;17.95;44.48;101877.63;5067828;28;45588;-55
2022/06/14 04:32:49;;;;;;;;;5.33;5.33;;;;;17.92;43.83;101878.66;5059957;27;45851;-53
2022/06/14 04:35:24;;;;;;;;;6.00;5.00;;;;;17.87;44.49;101875.38;5063381;27;45351;-54
2022/06/14 04:37:58;;;;;;;;;6.67;4.33;;;;;17.86;44.95;101871.84;5058171;28;45379;-55
2022/06/14 04:40:28;;;;;;;;;5.00;5.00;;;;;17.90;44.57;101874.31;5061482;28;45568;-55
2022/06/14 04:43:00;;;;;;;;;5.00;5.00;;;;;17.91;44.26;101871.53;5057887;28;45564;-55
2022/06/14 04:46:06;;;;;;;;;7.00;6.00;;;;;17.88;44.63;101874.44;5071986;27;45413;-55
2022/06/14 04:48:37;;;;;;;;;4.00;4.00;;;;;17.82;44.55;101873.00;5076205;27;45339;-55
2022/06/14 04:51:12;;;;;;;;;5.33;5.33;;;;;17.81;44.44;101868.56;5058676;28;45328;-55
2022/06/14 04:53:54;;;;;;;;;4.00;4.00;;;;;17.80;44.68;101869.53;5059935;28;45417;-55
2022/06/14 04:56:25;;;;;;;;;5.33;4.00;;;;;17.76;44.79;101872.53;5063921;28;45342;-55
2022/06/14 04:59:00;;;;;;;;;4.00;4.00;;;;;17.79;44.93;101875.03;5056981;27;45536;-56
2022/06/14 05:01:31;;;;;;;;;8.00;4.67;;;;;17.79;44.86;101873.19;5075848;27;45616;-55
2022/06/14 05:04:21;;;;;;;;;4.00;4.00;;;;;17.79;44.89;101869.63;5068307;27;45387;-54
2022/06/14 05:06:50;;;;;;;;;6.33;5.00;;;;;17.74;45.23;101863.69;5065320;28;45496;-53
2022/06/14 05:09:29;;;;;;;;;5.33;5.00;;;;;17.72;44.83;101871.84;5066340;27;45343;-53
2022/06/14 05:12:21;;;;;;;;;4.00;4.00;;;;;17.75;45.22;101868.97;5066358;28;45588;-54
2022/06/14 05:14:58;;;;;;;;;5.67;3.33;;;;;17.79;45.26;101877.72;5054630;28;45286;-54
2022/06/14 05:17:31;;;;;;;;;4.67;3.33;;;;;17.84;45.07;101871.06;5064946;28;45393;-54
2022/06/14 05:20:04;;;;;;;;;3.00;3.00;;;;;17.86;45.04;101868.31;5046661;28;45765;-52
2022/06/14 05:22:39;;;;;;;;;2.00;2.00;;;;;17.88;45.09;101874.44;5066380;28;45473;-55
2022/06/14 05:25:07;;;;;;;;;5.33;4.67;;;;;17.90;45.22;101864.44;5066337;28;46400;-55
2022/06/14 05:27:47;;;;;;;;;5.67;4.00;;;;;17.86;45.36;101866.47;5066851;28;45523;-53
2022/06/14 05:30:40;;;;;;;;;5.00;5.00;;;;;17.87;45.49;101864.63;5058534;28;45462;-53
2022/06/14 05:33:19;;;;;;;;;4.33;4.33;;;;;17.86;45.33;101861.06;5060347;28;45379;-52
2022/06/14 05:35:47;;;;;;;;;3.00;3.00;;;;;17.89;45.27;101861.84;5065850;28;46204;-53
2022/06/14 05:38:29;;;;;;;;;5.00;4.00;;;;;17.88;45.28;101863.66;5059508;27;45446;-56
2022/06/14 05:41:03;;;;;;;;;5.00;5.00;;;;;17.93;45.33;101876.88;5062843;28;45461;-53
2022/06/14 05:43:53;;;;;;;;;5.00;5.00;;;;;17.98;45.44;101872.91;5053537;28;46954;-53
2022/06/14 05:46:27;;;;;;;;;6.00;6.00;;;;;18.12;45.07;101872.03;5053943;28;45549;-54
2022/06/14 05:49:13;;;;;;;;;4.00;4.00;;;;;18.28;45.01;101873.72;5078282;27;45434;-55
2022/06/14 05:51:48;;;;;;;;;5.67;3.67;;;;;18.34;45.10;101874.16;5059333;28;45251;-55
2022/06/14 05:54:33;;;;;;;;;3.00;3.00;;;;;18.40;44.74;101875.59;5058882;28;45434;-56
2022/06/14 05:57:20;;;;;;;;;3.00;3.00;;;;;18.41;44.99;101876.44;5057639;28;45684;-55
2022/06/14 05:59:56;;;;;;;;;3.00;3.00;;;;;18.39;44.69;101876.53;5064604;28;45471;-56
2022/06/14 06:02:35;;;;;;;;;3.00;3.00;;;;;18.39;44.95;101873.84;5082775;27;45451;-58
2022/06/14 06:05:16;;;;;;;;;3.33;2.67;;;;;18.41;45.68;101862.97;5057340;28;45561;-59
2022/06/14 06:07:52;;;;;;;;;3.00;3.00;;;;;18.54;45.29;101860.31;5052116;28;46276;-59
2022/06/14 06:10:32;;;;;;;;;6.00;4.33;;;;;18.69;45.68;101867.38;5066884;27;45354;-59
2022/06/14 06:13:22;;;;;;;;;5.00;5.00;;;;;18.85;44.44;101856.41;5052249;28;45462;-58
2022/06/14 06:15:53;;;;;;;;;5.00;4.00;;;;;18.91;44.75;101856.03;5057318;28;45708;-58
2022/06/14 06:18:24;;;;;;;;;4.00;4.00;;;;;18.99;44.72;101851.00;5046932;28;46902;-59
2022/06/14 06:21:05;;;;;;;;;3.00;3.00;;;;;19.08;44.53;101851.31;5053809;28;45447;-59
2022/06/14 06:23:35;;;;;;;;;7.00;6.33;;;;;19.17;44.05;101850.66;5058845;28;45449;-59
2022/06/14 06:26:00;;;;;;;;;3.00;3.00;;;;;19.28;44.21;101842.69;5038244;28;45488;-56
2022/06/14 06:28:28;;;;;;;;;3.00;3.00;;;;;19.39;44.09;101850.00;5050976;28;52049;-54
2022/06/14 06:31:20;;;;;;;;;4.00;3.00;;;;;19.53;44.30;101838.25;5055852;28;45439;-55
2022/06/14 06:33:50;;;;;;;;;4.33;4.33;;;;;19.70;43.58;101842.44;5076889;27;45675;-56
2022/06/14 06:36:25;;;;;;;;;7.00;7.00;;;;;19.75;42.74;101837.56;5057852;27;45220;-57
2022/06/14 06:39:03;;;;;;;;;5.00;5.00;;;;;19.77;43.07;101848.25;5060151;28;46326;-56
2022/06/14 06:41:50;;;;;;;;;5.00;4.33;;;;;19.86;43.04;101841.34;5081689;27;46328;-55
2022/06/14 06:44:28;;;;;;;;;5.00;5.00;;;;;19.89;42.22;101846.50;5056908;28;45670;-56
2022/06/14 06:47:03;;;;;;;;;5.00;5.00;;;;;19.97;42.65;101846.81;5056901;28;45791;-56
2022/06/14 06:49:39;;;;;;;;;6.00;4.00;;;;;20.13;42.55;101841.16;5056562;28;45871;-57
2022/06/14 06:52:04;;;;;;;;;3.00;3.00;;;;;20.43;42.40;101837.97;5074796;27;45567;-55
2022/06/14 06:55:02;;;;;;;;;4.67;3.00;;;;;20.84;41.46;101838.50;5049738;28;45921;-57
2022/06/14 06:57:30;;;;;;;;;4.00;4.00;;;;;21.13;40.95;101838.06;5082953;27;45595;-55
2022/06/14 06:59:57;;;;;;;;;5.67;3.33;;;;;21.32;40.35;101827.53;5054053;28;46046;-56
2022/06/14 07:02:31;;;;;;;;;7.00;3.00;;;;;21.56;40.33;101836.53;5061693;28;46471;-57
2022/06/14 07:05:03;;;;;;;;;4.67;4.67;;;;;21.80;39.45;101834.53;5081893;27;45518;-57
2022/06/14 07:07:34;;;;;;;;;5.33;4.33;;;;;21.95;39.49;101831.56;5077397;27;45540;-58
2022/06/14 07:10:10;;;;;;;;;3.67;3.67;;;;;22.02;39.02;101826.50;5065144;28;45540;-57
2022/06/14 07:12:41;;;;;;;;;3.00;3.00;;;;;22.12;38.12;101822.03;5076773;27;45536;-57
2022/06/14 07:15:27;;;;;;;;;6.00;5.00;;;;;22.39;39.13;101823.47;5059050;27;45503;-57
2022/06/14 07:17:58;;;;;;;;;3.00;3.00;;;;;22.71;37.74;101815.31;5074751;27;45449;-58
2022/06/14 07:20:24;;;;;;;;;5.00;4.00;;;;;23.00;37.37;101819.19;5053028;28;45437;-58
2022/06/14 07:22:54;;;;;;;;;4.67;4.67;;;;;23.21;36.97;101827.34;5062267;28;45431;-58
2022/06/14 07:25:29;;;;;;;;;4.67;2.33;;;;;23.26;37.09;101809.66;5059440;28;45418;-58
2022/06/14 07:28:02;;;;;;;;;5.67;4.33;;;;;23.50;36.55;101805.75;5064355;28;45518;-58
2022/06/14 07:30:41;;;;;;;;;3.67;2.67;;;;;23.72;36.41;101807.38;5060151;28;45269;-57
2022/06/14 07:33:09;;;;;;;;;3.67;3.67;;;;;24.07;35.91;101799.78;5057183;28;45318;-58
2022/06/14 07:35:56;;;;;;;;;4.00;4.00;;;;;24.41;35.56;101810.22;5056679;28;54570;-58
2022/06/14 07:38:28;;;;;;;;;5.25;2.00;;;;;24.74;35.58;101802.63;5062160;28;45403;-58
2022/06/14 07:41:14;;;;;;;;;3.00;3.00;;;;;24.94;35.03;101804.31;5061399;28;45981;-58
2022/06/14 07:43:46;;;;;;;;;4.00;4.00;;;;;25.13;34.33;101802.53;5061794;28;45794;-58
2022/06/14 07:46:15;;;;;;;;;3.67;3.67;;;;;25.31;34.20;101794.44;5060995;28;45547;-59
2022/06/14 07:48:49;;;;;;;;;3.67;3.00;;;;;25.45;33.99;101798.59;5063174;28;45721;-59
2022/06/14 07:51:22;;;;;;;;;5.33;4.00;;;;;25.69;33.27;101805.34;5050808;28;45975;-58
2022/06/14 07:53:58;;;;;;;;;4.00;3.67;;;;;25.89;32.80;101804.22;5065959;28;45472;-57
2022/06/14 07:56:36;;;;;;;;;3.33;3.33;;;;;25.97;32.38;101798.00;5060207;28;46711;-58
2022/06/14 07:59:05;;;;;;;;;2.67;2.67;;;;;26.02;32.38;101787.50;5062710;28;45619;-58
2022/06/14 08:01:34;;;;;;;;;4.00;4.00;;;;;26.33;31.96;101789.84;5079094;27;46381;-58
2022/06/14 08:04:04;;;;;;;;;3.00;3.00;;;;;26.61;31.92;101792.47;5063849;28;46147;-59
2022/06/14 08:06:34;;;;;;;;;2.50;2.50;;;;;26.89;30.87;101787.72;5056215;28;45528;-59
2022/06/14 08:09:07;;;;;;;;;3.00;3.00;;;;;27.15;30.17;101781.41;5038736;28;45425;-59
2022/06/14 08:11:49;;;;;;;;;2.25;2.25;;;;;27.53;30.03;101775.63;5054470;28;46160;-59
2022/06/14 08:14:22;;;;;;;;;6.33;3.00;;;;;27.93;29.94;101774.03;5060613;28;45396;-59
2022/06/14 08:16:49;;;;;;;;;2.50;2.50;;;;;28.20;29.37;101770.16;5057192;28;45636;-59
2022/06/14 08:19:22;;;;;;;;;3.00;3.00;;;;;28.47;29.69;101762.63;5062249;28;45461;-59
2022/06/14 08:21:52;;;;;;;;;3.00;3.00;;;;;28.76;29.26;101764.00;5065494;28;46133;-59
2022/06/14 08:24:29;;;;;;;;;2.75;2.75;;;;;29.06;28.68;101764.28;5063217;28;45464;-58
2022/06/14 08:27:28;;;;;;;;;3.75;3.75;;;;;29.45;28.45;101768.94;5064876;28;45750;-58
2022/06/14 08:30:10;;;;;;;;;2.00;2.00;;;;;29.81;28.02;101764.81;5069577;27;45531;-59
2022/06/14 08:32:58;;;;;;;;;3.67;3.00;;;;;30.16;27.26;101766.13;5063950;27;48121;-59
2022/06/14 08:35:34;;;;;;;;;1.00;1.00;;;;;30.40;25.66;101758.72;5062605;28;45852;-60
2022/06/14 08:38:19;;;;;;;;;3.25;3.25;;;;;30.54;26.13;101757.06;5063932;28;45624;-58
2022/06/14 08:40:59;;;;;;;;;5.25;4.00;;;;;30.80;26.24;101750.31;5078299;27;45470;-60
2022/06/14 08:43:45;;;;;;;;;2.75;1.25;;;;;31.17;25.60;101754.88;5060812;28;46561;-59
2022/06/14 08:46:29;;;;;;;;;2.75;2.75;;;;;31.45;25.58;101753.31;5064215;28;45661;-59
2022/06/14 08:49:16;;;;;;;;;4.00;3.00;;;;;31.69;24.89;101746.63;5065627;28;46199;-59
2022/06/14 08:51:53;;;;;;;;;3.25;3.25;;;;;31.88;24.84;101761.66;5066832;28;45481;-58
2022/06/14 08:54:35;;;;;;;;;8.25;4.25;;;;;31.86;24.44;101751.91;5060152;28;45778;-59
2022/06/14 08:57:20;;;;;;;;;4.00;2.25;;;;;31.79;24.49;101758.19;5062416;28;47210;-59
2022/06/14 09:00:04;;;;;;;;;3.50;3.50;;;;;31.81;23.35;101755.22;5063820;27;45563;-59
2022/06/14 09:02:53;;;;;;;;;4.00;3.25;;;;;31.75;24.37;101750.53;5063398;28;45651;-59
2022/06/14 09:05:35;;;;;;;;;1.00;1.00;;;;;31.82;24.17;101757.81;5064063;28;45578;-59
2022/06/14 09:08:06;;;;;;;;;3.00;3.00;;;;;32.05;23.59;101747.66;5080683;27;45479;-59
2022/06/14 09:10:51;;;;;;;;;6.75;4.25;;;;;32.27;23.50;101759.53;5061799;27;45766;-60
2022/06/14 09:13:53;;;;;;;;;3.75;3.75;;;;;32.62;23.04;101757.69;5064769;28;45472;-60
2022/06/14 09:16:46;;;;;;;;;3.50;2.00;;;;;33.02;23.34;101746.09;5065088;28;46564;-59
2022/06/14 09:19:36;;;;;;;;;2.75;2.75;;;;;33.28;22.87;101748.19;5064988;28;45466;-59
2022/06/14 09:22:15;;;;;;;;;2.75;2.75;;;;;33.59;22.90;101744.03;5064391;27;45464;-59
2022/06/14 09:25:09;;;;;;;;;3.75;2.50;;;;;33.96;21.76;101752.84;5062179;28;45465;-59
2022/06/14 09:28:08;;;;;;;;;4.00;2.50;;;;;34.21;22.25;101754.13;5080887;27;46154;-60
2022/06/14 09:30:42;;;;;;;;;1.75;1.75;;;;;34.36;21.75;101746.53;5065672;28;46799;-60
2022/06/14 09:33:42;;;;;;;;;3.00;3.00;;;;;34.65;19.61;101738.00;5070481;28;45512;-60
2022/06/14 09:36:32;;;;;;;;;7.00;5.00;;;;;34.62;19.72;101742.03;5065374;28;45572;-60
2022/06/14 09:39:26;;;;;;;;;1.50;1.50;;;;;34.39;20.10;101745.25;5078596;27;48178;-60
2022/06/14 09:42:13;;;;;;;;;5.00;2.50;;;;;34.28;20.16;101746.72;5053729;28;45633;-59
2022/06/14 09:45:03;;;;;;;;;4.25;3.00;;;;;34.46;20.23;101744.19;5065608;28;45620;-60
2022/06/14 09:48:03;;;;;;;;;4.00;3.00;;;;;34.81;20.96;101744.97;5063819;28;46731;-60
2022/06/14 09:51:06;;;;;;;;;2.25;2.25;;;;;35.20;20.61;101737.66;5063999;28;46053;-60
2022/06/14 09:54:08;;;;;;;;;3.25;3.25;;;;;35.44;19.14;101745.22;5062161;28;45709;-59
2022/06/14 09:56:48;;;;;;;;;6.00;3.00;;;;;35.30;19.35;101742.72;5063289;28;45460;-60
2022/06/14 09:59:30;;;;;;;;;1.00;0.00;;;;;34.86;19.05;101740.56;5078065;27;45437;-60
2022/06/14 10:02:07;;;;;;;;;3.50;3.00;;;;;34.86;19.85;101743.31;5079369;27;46711;-60
2022/06/14 10:04:54;;;;;;;;;3.50;3.50;;;;;35.35;20.52;101738.25;5080405;27;45635;-60
2022/06/14 10:07:36;;;;;;;;;3.75;3.75;;;;;35.84;19.95;101735.00;5061555;28;45548;-61
2022/06/14 10:10:19;;;;;;;;;3.75;3.75;;;;;36.18;19.19;101730.06;5066234;28;46882;-61
2022/06/14 10:13:05;;;;;;;;;5.50;3.75;;;;;36.43;19.30;101724.56;5060980;28;46409;-62
2022/06/14 10:15:39;;;;;;;;;4.00;2.00;;;;;36.70;18.55;101724.28;5061650;28;45559;-62
2022/06/14 10:18:41;;;;;;;;;3.00;3.00;;;;;36.96;19.15;101722.31;5062027;28;45373;-61
2022/06/14 10:21:14;;;;;;;;;3.67;3.67;;;;;37.08;17.94;101721.31;5064828;28;45543;-61
2022/06/14 10:23:46;;;;;;;;;3.67;3.67;;;;;37.18;17.94;101719.91;5079158;27;46143;-61
2022/06/14 10:29:27;;;;;;;;;4.25;4.25;;;;;37.00;17.97;101718.88;5064465;28;46790;-61
2022/06/14 10:32:11;;;;;;;;;2.67;2.67;;;;;36.89;17.89;101723.25;5064724;28;45684;-61
2022/06/14 10:34:45;;;;;;;;;4.00;4.00;;;;;36.72;18.59;101717.44;5063269;27;45492;-60
2022/06/14 10:37:41;;;;;;;;;2.25;2.00;;;;;36.75;18.67;101707.81;5077734;27;46189;-61
2022/06/14 10:40:12;;;;;;;;;4.00;3.00;;;;;36.76;18.12;101703.97;5064568;28;45774;-61
2022/06/14 10:42:45;;;;;;;;;4.00;3.67;;;;;36.64;18.28;101709.44;5062539;28;45402;-57
2022/06/14 10:45:16;;;;;;;;;3.00;2.67;;;;;36.48;18.18;101708.13;5063158;28;46451;-58
2022/06/14 10:48:10;;;;;;;;;4.67;4.67;;;;;36.15;17.68;101697.31;5058671;28;45509;-58
2022/06/14 10:50:47;;;;;;;;;4.33;4.33;;;;;36.02;18.15;101689.97;5056665;28;45590;-58
2022/06/14 10:53:32;;;;;;;;;4.33;4.33;;;;;36.17;18.23;101686.88;5053560;28;45394;-58
2022/06/14 10:56:00;;;;;;;;;2.00;2.00;;;;;36.15;18.41;101686.25;5062395;28;45592;-57
2022/06/14 10:58:37;;;;;;;;;6.00;6.00;;;;;36.23;18.19;101685.94;5061751;28;45659;-58
2022/06/14 11:01:13;;;;;;;;;4.00;4.00;;;;;36.24;18.89;101684.88;5059438;28;45337;-58
2022/06/14 11:03:58;;;;;;;;;1.67;1.67;;;;;36.24;18.83;101682.09;5064109;28;45434;-57
2022/06/14 11:06:42;;;;;;;;;4.67;4.00;;;;;36.05;19.03;101679.31;5060634;28;46192;-58
2022/06/14 11:09:08;;;;;;;;;3.67;3.67;;;;;35.77;19.32;101674.19;5064008;28;46973;-58
2022/06/14 11:11:43;;;;;;;;;5.67;4.67;;;;;35.34;18.82;101672.97;5064448;28;45471;-57
2022/06/14 11:14:23;;;;;;;;;3.67;2.33;;;;;34.83;19.16;101668.28;5078999;27;45746;-58
2022/06/14 11:17:07;;;;;;;;;2.67;2.67;;;;;34.22;19.33;101664.75;5047031;28;45473;-58
2022/06/14 11:19:41;;;;;;;;;2.00;2.00;;;;;33.71;19.94;101658.78;5051975;28;45701;-58
2022/06/14 11:22:09;;;;;;;;;4.00;2.67;;;;;33.12;20.54;101649.31;5049321;28;45489;-58
2022/06/14 11:24:49;;;;;;;;;3.25;3.25;;;;;32.59;20.88;101647.97;5052960;28;45429;-61
2022/06/14 11:27:35;;;;;;;;;4.00;3.00;;;;;32.24;21.12;101644.34;5055826;28;47373;-61
2022/06/14 11:30:38;;;;;;;;;5.00;3.33;;;;;32.02;21.50;101644.38;5068169;28;45634;-61
2022/06/14 11:33:09;;;;;;;;;3.00;3.00;;;;;31.84;22.37;101642.13;5067157;28;45700;-60
2022/06/14 11:36:20;;;;;;;;;5.00;3.00;;;;;31.71;21.59;101633.72;5056900;28;45553;-61
2022/06/14 11:39:27;;;;;;;;;6.00;6.00;;;;;31.38;22.45;101635.09;5050067;27;45653;-61
2022/06/14 11:41:53;;;;;;;;;3.00;3.00;;;;;31.20;22.49;101620.91;5077673;27;45894;-60
2022/06/14 11:44:43;;;;;;;;;3.50;3.50;;;;;31.04;23.16;101616.47;5066792;27;46494;-61
2022/06/14 11:47:28;;;;;;;;;6.33;5.33;;;;;30.80;22.39;101622.09;5067254;28;45730;-61
2022/06/14 11:50:21;;;;;;;;;5.33;4.67;;;;;30.65;23.15;101615.78;5064901;28;45461;-61
2022/06/14 11:52:57;;;;;;;;;3.50;3.50;;;;;30.51;23.32;101601.03;5066102;28;45665;-61
2022/06/14 11:55:49;;;;;;;;;7.67;4.67;;;;;30.31;23.65;101607.06;5064351;28;45565;-61
2022/06/14 11:58:22;;;;;;;;;6.00;5.00;;;;;30.19;23.37;101601.19;5077421;27;45608;-61
2022/06/14 12:01:14;;;;;;;;;4.75;3.00;;;;;30.11;24.12;101606.75;5056447;28;45546;-61
2022/06/14 12:04:07;;;;;;;;;4.25;2.75;;;;;30.04;23.73;101603.06;5061357;27;45994;-61
2022/06/14 12:06:41;;;;;;;;;5.00;4.33;;;;;29.97;24.51;101599.34;5058536;28;45641;-61
2022/06/14 12:09:32;;;;;;;;;4.00;4.00;;;;;29.90;24.80;101590.19;5062106;28;45450;-61
2022/06/14 12:12:06;;;;;;;;;3.67;3.00;;;;;29.82;23.74;101589.16;5061371;28;46180;-61
2022/06/14 12:14:55;;;;;;;;;7.33;7.33;;;;;29.76;24.03;101603.59;5066577;27;45818;-61
2022/06/14 12:17:27;;;;;;;;;6.00;5.00;;;;;29.68;24.81;101603.69;5078302;27;45852;-61
2022/06/14 12:20:05;;;;;;;;;3.00;3.00;;;;;29.62;24.63;101601.66;5065826;28;45421;-61
2022/06/14 12:22:38;;;;;;;;;7.00;4.33;;;;;29.53;24.28;101587.22;5066149;28;45580;-61